Daufuskie Island, South Carolina
Current Conditions -  °F | °C
As of 12:50 PM on Friday 28 Nov 2014 (Local Time) from KHXD Reporting Station
Clear Clear  
Wind Chill: 44°   Ceiling: Unl
Heat Index: 46°   Visibility: 10mi
Dew Point: 30°   Wind: 6mph
Humidity: 53%   Direction: 10°N
Pressure: 30.37"   Gusts: NA
Location:  32.1°N, 80.89°W
Report Text: KHXD 281750Z 01005KT 10SM SKC 08/M01 A3037
Loading
Personal Weather Stations






























Interactive Weather Map New forecast layout! Learn more

10-Day Weather Forecast

Advertisements
Track Severe Weather on mobile